sensor_id;sensor_type;location;lat;lon;timestamp;temperature;humidity
72591;SHT31;60625;51.212;5.952;2022-12-07T00:00:40;5.12;87.71
72591;SHT31;60625;51.212;5.952;2022-12-07T00:05:40;5.08;87.70
72591;SHT31;60625;51.212;5.952;2022-12-07T00:10:44;5.04;87.79
72591;SHT31;60625;51.212;5.952;2022-12-07T00:15:45;5.00;87.80
72591;SHT31;60625;51.212;5.952;2022-12-07T00:20:45;4.97;87.89
72591;SHT31;60625;51.212;5.952;2022-12-07T00:25:46;4.93;87.90
72591;SHT31;60625;51.212;5.952;2022-12-07T00:30:48;4.89;87.99
72591;SHT31;60625;51.212;5.952;2022-12-07T00:35:54;4.87;88.07
72591;SHT31;60625;51.212;5.952;2022-12-07T00:40:57;4.85;88.16
72591;SHT31;60625;51.212;5.952;2022-12-07T00:46:00;4.83;88.25
72591;SHT31;60625;51.212;5.952;2022-12-07T00:51:00;4.82;88.29
72591;SHT31;60625;51.212;5.952;2022-12-07T00:56:06;4.79;88.38
72591;SHT31;60625;51.212;5.952;2022-12-07T01:01:13;4.77;88.50
72591;SHT31;60625;51.212;5.952;2022-12-07T01:06:14;4.78;88.56
72591;SHT31;60625;51.212;5.952;2022-12-07T01:11:18;4.77;88.64
72591;SHT31;60625;51.212;5.952;2022-12-07T01:16:23;4.75;88.74
72591;SHT31;60625;51.212;5.952;2022-12-07T01:21:31;4.75;88.80
72591;SHT31;60625;51.212;5.952;2022-12-07T01:26:36;4.74;88.88
72591;SHT31;60625;51.212;5.952;2022-12-07T01:31:38;4.73;88.90
72591;SHT31;60625;51.212;5.952;2022-12-07T01:36:38;4.72;88.90
72591;SHT31;60625;51.212;5.952;2022-12-07T01:41:39;4.70;88.89
72591;SHT31;60625;51.212;5.952;2022-12-07T01:46:44;4.66;88.83
72591;SHT31;60625;51.212;5.952;2022-12-07T01:51:56;4.60;88.80
72591;SHT31;60625;51.212;5.952;2022-12-07T01:57:22;4.52;88.80
72591;SHT31;60625;51.212;5.952;2022-12-07T02:02:25;4.46;88.85
72591;SHT31;60625;51.212;5.952;2022-12-07T02:07:32;4.40;88.92
72591;SHT31;60625;51.212;5.952;2022-12-07T02:12:36;4.35;89.10
72591;SHT31;60625;51.212;5.952;2022-12-07T02:17:43;4.35;89.25
72591;SHT31;60625;51.212;5.952;2022-12-07T02:23:01;4.36;89.46
72591;SHT31;60625;51.212;5.952;2022-12-07T02:34:14;4.42;89.66
72591;SHT31;60625;51.212;5.952;2022-12-07T02:39:42;4.44;89.70
72591;SHT31;60625;51.212;5.952;2022-12-07T02:44:49;4.45;89.71
72591;SHT31;60625;51.212;5.952;2022-12-07T02:49:51;4.46;89.74
72591;SHT31;60625;51.212;5.952;2022-12-07T02:54:52;4.46;89.79
72591;SHT31;60625;51.212;5.952;2022-12-07T03:05:14;4.45;89.77
72591;SHT31;60625;51.212;5.952;2022-12-07T03:16:10;4.45;89.71
72591;SHT31;60625;51.212;5.952;2022-12-07T03:21:38;4.46;89.71
72591;SHT31;60625;51.212;5.952;2022-12-07T03:26:43;4.46;89.71
72591;SHT31;60625;51.212;5.952;2022-12-07T03:31:59;4.46;89.79
72591;SHT31;60625;51.212;5.952;2022-12-07T03:37:51;4.45;89.77
72591;SHT31;60625;51.212;5.952;2022-12-07T03:42:49;4.43;89.69
72591;SHT31;60625;51.212;5.952;2022-12-07T03:53:40;4.35;89.64
72591;SHT31;60625;51.212;5.952;2022-12-07T03:58:48;4.31;89.60
72591;SHT31;60625;51.212;5.952;2022-12-07T04:03:50;4.26;89.60
72591;SHT31;60625;51.212;5.952;2022-12-07T04:08:51;4.24;89.60
72591;SHT31;60625;51.212;5.952;2022-12-07T04:13:53;4.22;89.60
72591;SHT31;60625;51.212;5.952;2022-12-07T04:19:13;4.21;89.66
72591;SHT31;60625;51.212;5.952;2022-12-07T04:24:14;4.23;89.79
72591;SHT31;60625;51.212;5.952;2022-12-07T04:29:16;4.24;89.81
72591;SHT31;60625;51.212;5.952;2022-12-07T04:34:18;4.26;89.89
72591;SHT31;60625;51.212;5.952;2022-12-07T04:39:26;4.29;89.90
72591;SHT31;60625;51.212;5.952;2022-12-07T04:44:31;4.31;89.90
72591;SHT31;60625;51.212;5.952;2022-12-07T04:49:32;4.32;89.90
72591;SHT31;60625;51.212;5.952;2022-12-07T04:54:32;4.34;89.90
72591;SHT31;60625;51.212;5.952;2022-12-07T04:59:33;4.35;89.90
72591;SHT31;60625;51.212;5.952;2022-12-07T05:04:34;4.36;89.90
72591;SHT31;60625;51.212;5.952;2022-12-07T05:09:35;4.39;89.93
72591;SHT31;60625;51.212;5.952;2022-12-07T05:14:35;4.42;89.98
72591;SHT31;60625;51.212;5.952;2022-12-07T05:19:39;4.45;89.96
72591;SHT31;60625;51.212;5.952;2022-12-07T05:24:40;4.48;89.97
72591;SHT31;60625;51.212;5.952;2022-12-07T05:29:42;4.52;89.94
72591;SHT31;60625;51.212;5.952;2022-12-07T05:34:43;4.53;89.90
72591;SHT31;60625;51.212;5.952;2022-12-07T05:39:43;4.56;89.89
72591;SHT31;60625;51.212;5.952;2022-12-07T05:44:44;4.57;89.89
72591;SHT31;60625;51.212;5.952;2022-12-07T05:49:46;4.59;89.85
72591;SHT31;60625;51.212;5.952;2022-12-07T05:54:47;4.60;89.86
72591;SHT31;60625;51.212;5.952;2022-12-07T05:59:47;4.60;89.85
72591;SHT31;60625;51.212;5.952;2022-12-07T06:04:48;4.61;89.82
72591;SHT31;60625;51.212;5.952;2022-12-07T06:09:48;4.61;89.81
72591;SHT31;60625;51.212;5.952;2022-12-07T06:14:48;4.60;89.79
72591;SHT31;60625;51.212;5.952;2022-12-07T06:19:49;4.60;89.79
72591;SHT31;60625;51.212;5.952;2022-12-07T06:24:50;4.60;89.72
72591;SHT31;60625;51.212;5.952;2022-12-07T06:29:50;4.59;89.74
72591;SHT31;60625;51.212;5.952;2022-12-07T06:34:51;4.58;89.71
72591;SHT31;60625;51.212;5.952;2022-12-07T06:39:51;4.56;89.68
72591;SHT31;60625;51.212;5.952;2022-12-07T06:44:53;4.52;89.63
72591;SHT31;60625;51.212;5.952;2022-12-07T06:49:53;4.48;89.60
72591;SHT31;60625;51.212;5.952;2022-12-07T06:54:54;4.44;89.60
72591;SHT31;60625;51.212;5.952;2022-12-07T06:59:54;4.38;89.60
72591;SHT31;60625;51.212;5.952;2022-12-07T07:04:55;4.36;89.60
72591;SHT31;60625;51.212;5.952;2022-12-07T07:09:55;4.32;89.63
72591;SHT31;60625;51.212;5.952;2022-12-07T07:14:56;4.30;89.66
72591;SHT31;60625;51.212;5.952;2022-12-07T07:19:56;4.28;89.69
72591;SHT31;60625;51.212;5.952;2022-12-07T07:24:57;4.24;89.70
72591;SHT31;60625;51.212;5.952;2022-12-07T07:29:57;4.21;89.70
72591;SHT31;60625;51.212;5.952;2022-12-07T07:34:58;4.16;89.71
72591;SHT31;60625;51.212;5.952;2022-12-07T07:39:58;4.13;89.70
72591;SHT31;60625;51.212;5.952;2022-12-07T07:44:59;4.10;89.70
72591;SHT31;60625;51.212;5.952;2022-12-07T07:50:00;4.07;89.69
72591;SHT31;60625;51.212;5.952;2022-12-07T07:55:01;4.04;89.69
72591;SHT31;60625;51.212;5.952;2022-12-07T08:00:13;4.01;89.72
72591;SHT31;60625;51.212;5.952;2022-12-07T08:05:17;4.00;89.76
72591;SHT31;60625;51.212;5.952;2022-12-07T08:10:22;4.00;89.79
72591;SHT31;60625;51.212;5.952;2022-12-07T08:15:22;4.02;89.89
72591;SHT31;60625;51.212;5.952;2022-12-07T08:20:23;4.04;89.91
72591;SHT31;60625;51.212;5.952;2022-12-07T08:25:24;4.07;90.00
72591;SHT31;60625;51.212;5.952;2022-12-07T08:30:26;4.12;90.06
72591;SHT31;60625;51.212;5.952;2022-12-07T08:35:28;4.20;90.10
72591;SHT31;60625;51.212;5.952;2022-12-07T08:40:29;4.26;90.10
72591;SHT31;60625;51.212;5.952;2022-12-07T08:45:31;4.34;90.13
72591;SHT31;60625;51.212;5.952;2022-12-07T08:50:35;4.42;90.13
72591;SHT31;60625;51.212;5.952;2022-12-07T08:55:37;4.49;90.07
72591;SHT31;60625;51.212;5.952;2022-12-07T09:00:38;4.58;90.07
72591;SHT31;60625;51.212;5.952;2022-12-07T09:05:39;4.70;89.99
72591;SHT31;60625;51.212;5.952;2022-12-07T09:10:40;4.83;89.89
72591;SHT31;60625;51.212;5.952;2022-12-07T09:15:41;4.91;89.76
72591;SHT31;60625;51.212;5.952;2022-12-07T09:20:42;5.00;89.48
72591;SHT31;60625;51.212;5.952;2022-12-07T09:25:43;5.02;89.23
72591;SHT31;60625;51.212;5.952;2022-12-07T09:30:47;5.07;89.15
72591;SHT31;60625;51.212;5.952;2022-12-07T09:35:51;5.10;89.03
72591;SHT31;60625;51.212;5.952;2022-12-07T09:40:53;5.10;88.88
72591;SHT31;60625;51.212;5.952;2022-12-07T09:45:55;5.09;88.80
72591;SHT31;60625;51.212;5.952;2022-12-07T09:50:58;5.15;88.81
72591;SHT31;60625;51.212;5.952;2022-12-07T09:56:00;5.33;88.65
72591;SHT31;60625;51.212;5.952;2022-12-07T10:06:09;5.75;88.07
72591;SHT31;60625;51.212;5.952;2022-12-07T10:11:14;5.87;87.58
72591;SHT31;60625;51.212;5.952;2022-12-07T10:16:35;5.92;87.29
72591;SHT31;60625;51.212;5.952;2022-12-07T10:21:41;5.89;87.01
72591;SHT31;60625;51.212;5.952;2022-12-07T10:27:20;5.89;86.90
72591;SHT31;60625;51.212;5.952;2022-12-07T10:32:34;5.90;86.73
72591;SHT31;60625;51.212;5.952;2022-12-07T10:37:39;5.95;86.74
72591;SHT31;60625;51.212;5.952;2022-12-07T10:42:42;6.11;86.58
72591;SHT31;60625;51.212;5.952;2022-12-07T10:48:12;6.26;86.39
72591;SHT31;60625;51.212;5.952;2022-12-07T11:04:29;6.45;85.72
72591;SHT31;60625;51.212;5.952;2022-12-07T11:41:50;7.28;84.03
72591;SHT31;60625;51.212;5.952;2022-12-07T11:47:02;7.77;82.78
72591;SHT31;60625;51.212;5.952;2022-12-07T11:52:44;8.19;81.18
72591;SHT31;60625;51.212;5.952;2022-12-07T11:58:04;8.48;80.03
72591;SHT31;60625;51.212;5.952;2022-12-07T12:03:28;8.69;79.46
72591;SHT31;60625;51.212;5.952;2022-12-07T12:25:41;9.26;77.93
72591;SHT31;60625;51.212;5.952;2022-12-07T12:30:52;9.22;77.48
72591;SHT31;60625;51.212;5.952;2022-12-07T12:46:38;9.04;77.39
72591;SHT31;60625;51.212;5.952;2022-12-07T12:52:00;9.00;77.42
72591;SHT31;60625;51.212;5.952;2022-12-07T12:57:19;8.88;77.15
72591;SHT31;60625;51.212;5.952;2022-12-07T13:02:37;8.69;77.37
72591;SHT31;60625;51.212;5.952;2022-12-07T13:08:03;8.58;77.72
72591;SHT31;60625;51.212;5.952;2022-12-07T13:28:38;7.77;79.29
72591;SHT31;60625;51.212;5.952;2022-12-07T13:33:47;7.72;80.24
72591;SHT31;60625;51.212;5.952;2022-12-07T13:38:50;7.68;80.74
72591;SHT31;60625;51.212;5.952;2022-12-07T13:49:44;7.58;81.01
72591;SHT31;60625;51.212;5.952;2022-12-07T13:54:55;7.56;81.14
72591;SHT31;60625;51.212;5.952;2022-12-07T14:00:16;7.55;81.13
72591;SHT31;60625;51.212;5.952;2022-12-07T14:22:18;7.26;81.77
72591;SHT31;60625;51.212;5.952;2022-12-07T14:27:35;7.23;81.92
72591;SHT31;60625;51.212;5.952;2022-12-07T14:32:37;7.22;82.31
72591;SHT31;60625;51.212;5.952;2022-12-07T14:37:39;7.22;82.44
72591;SHT31;60625;51.212;5.952;2022-12-07T14:42:45;7.18;82.42
72591;SHT31;60625;51.212;5.952;2022-12-07T14:47:53;7.07;82.58
72591;SHT31;60625;51.212;5.952;2022-12-07T14:52:54;7.00;82.75
72591;SHT31;60625;51.212;5.952;2022-12-07T14:57:59;6.93;82.92
72591;SHT31;60625;51.212;5.952;2022-12-07T15:03:00;6.89;83.04
72591;SHT31;60625;51.212;5.952;2022-12-07T15:08:00;6.85;83.10
72591;SHT31;60625;51.212;5.952;2022-12-07T15:13:01;6.80;83.21
72591;SHT31;60625;51.212;5.952;2022-12-07T15:18:22;6.76;83.22
72591;SHT31;60625;51.212;5.952;2022-12-07T15:23:23;6.67;83.21
72591;SHT31;60625;51.212;5.952;2022-12-07T15:28:24;6.54;83.33
72591;SHT31;60625;51.212;5.952;2022-12-07T15:33:24;6.43;83.42
72591;SHT31;60625;51.212;5.952;2022-12-07T15:38:25;6.33;83.47
72591;SHT31;60625;51.212;5.952;2022-12-07T15:43:27;6.24;83.64
72591;SHT31;60625;51.212;5.952;2022-12-07T15:48:47;6.17;83.72
72591;SHT31;60625;51.212;5.952;2022-12-07T15:53:48;6.08;83.84
72591;SHT31;60625;51.212;5.952;2022-12-07T15:58:49;6.00;84.04
72591;SHT31;60625;51.212;5.952;2022-12-07T16:03:52;5.95;84.10
72591;SHT31;60625;51.212;5.952;2022-12-07T16:08:52;5.89;84.22
72591;SHT31;60625;51.212;5.952;2022-12-07T16:13:53;5.86;84.42
72591;SHT31;60625;51.212;5.952;2022-12-07T16:18:53;5.85;84.60
72591;SHT31;60625;51.212;5.952;2022-12-07T16:23:56;5.84;84.75
72591;SHT31;60625;51.212;5.952;2022-12-07T16:28:59;5.82;84.88
72591;SHT31;60625;51.212;5.952;2022-12-07T16:33:59;5.82;84.94
72591;SHT31;60625;51.212;5.952;2022-12-07T16:39:01;5.80;85.07
72591;SHT31;60625;51.212;5.952;2022-12-07T16:44:06;5.79;85.10
72591;SHT31;60625;51.212;5.952;2022-12-07T16:49:11;5.73;85.18
72591;SHT31;60625;51.212;5.952;2022-12-07T16:54:13;5.71;85.30
72591;SHT31;60625;51.212;5.952;2022-12-07T16:59:14;5.69;85.31
72591;SHT31;60625;51.212;5.952;2022-12-07T17:04:15;5.65;85.43
72591;SHT31;60625;51.212;5.952;2022-12-07T17:09:15;5.63;85.54
72591;SHT31;60625;51.212;5.952;2022-12-07T17:14:15;5.61;85.61
72591;SHT31;60625;51.212;5.952;2022-12-07T17:19:34;5.58;85.79
72591;SHT31;60625;51.212;5.952;2022-12-07T17:24:35;5.57;85.90
72591;SHT31;60625;51.212;5.952;2022-12-07T17:29:36;5.56;86.02
72591;SHT31;60625;51.212;5.952;2022-12-07T17:34:36;5.56;86.10
72591;SHT31;60625;51.212;5.952;2022-12-07T17:39:37;5.55;86.14
72591;SHT31;60625;51.212;5.952;2022-12-07T17:44:37;5.55;86.15
72591;SHT31;60625;51.212;5.952;2022-12-07T17:49:39;5.55;86.13
72591;SHT31;60625;51.212;5.952;2022-12-07T17:54:40;5.54;86.18
72591;SHT31;60625;51.212;5.952;2022-12-07T17:59:41;5.55;86.20
72591;SHT31;60625;51.212;5.952;2022-12-07T18:04:43;5.55;86.19
72591;SHT31;60625;51.212;5.952;2022-12-07T18:09:46;5.55;86.12
72591;SHT31;60625;51.212;5.952;2022-12-07T18:14:47;5.54;86.07
72591;SHT31;60625;51.212;5.952;2022-12-07T18:19:50;5.51;86.00
72591;SHT31;60625;51.212;5.952;2022-12-07T18:24:53;5.49;86.00
72591;SHT31;60625;51.212;5.952;2022-12-07T18:29:54;5.47;85.95
72591;SHT31;60625;51.212;5.952;2022-12-07T18:34:55;5.45;85.83
72591;SHT31;60625;51.212;5.952;2022-12-07T18:39:55;5.44;85.79
72591;SHT31;60625;51.212;5.952;2022-12-07T18:44:56;5.42;85.77
72591;SHT31;60625;51.212;5.952;2022-12-07T18:49:56;5.40;85.76
72591;SHT31;60625;51.212;5.952;2022-12-07T18:54:57;5.39;85.79
72591;SHT31;60625;51.212;5.952;2022-12-07T18:59:58;5.37;85.80
72591;SHT31;60625;51.212;5.952;2022-12-07T19:04:58;5.35;85.86
72591;SHT31;60625;51.212;5.952;2022-12-07T19:10:01;5.33;85.89
72591;SHT31;60625;51.212;5.952;2022-12-07T19:15:03;5.33;85.90
72591;SHT31;60625;51.212;5.952;2022-12-07T19:20:08;5.33;85.93
72591;SHT31;60625;51.212;5.952;2022-12-07T19:25:13;5.32;85.99
72591;SHT31;60625;51.212;5.952;2022-12-07T19:30:14;5.30;86.00
72591;SHT31;60625;51.212;5.952;2022-12-07T19:35:15;5.30;86.04
72591;SHT31;60625;51.212;5.952;2022-12-07T19:40:15;5.28;86.11
72591;SHT31;60625;51.212;5.952;2022-12-07T19:45:16;5.29;86.18
72591;SHT31;60625;51.212;5.952;2022-12-07T19:50:21;5.27;86.17
72591;SHT31;60625;51.212;5.952;2022-12-07T19:55:22;5.25;86.18
72591;SHT31;60625;51.212;5.952;2022-12-07T20:00:23;5.23;86.18
72591;SHT31;60625;51.212;5.952;2022-12-07T20:05:24;5.21;86.19
72591;SHT31;60625;51.212;5.952;2022-12-07T20:10:25;5.20;86.18
72591;SHT31;60625;51.212;5.952;2022-12-07T20:15:26;5.17;86.19
72591;SHT31;60625;51.212;5.952;2022-12-07T20:20:27;5.14;86.20
72591;SHT31;60625;51.212;5.952;2022-12-07T20:25:34;5.12;86.23
72591;SHT31;60625;51.212;5.952;2022-12-07T20:30:36;5.09;86.23
72591;SHT31;60625;51.212;5.952;2022-12-07T20:35:37;5.05;86.28
72591;SHT31;60625;51.212;5.952;2022-12-07T20:40:46;5.02;86.28
72591;SHT31;60625;51.212;5.952;2022-12-07T20:45:48;4.98;86.30
72591;SHT31;60625;51.212;5.952;2022-12-07T20:50:49;4.98;86.26
72591;SHT31;60625;51.212;5.952;2022-12-07T20:55:50;4.97;86.17
72591;SHT31;60625;51.212;5.952;2022-12-07T21:00:50;4.95;86.11
72591;SHT31;60625;51.212;5.952;2022-12-07T21:05:51;4.93;86.10
72591;SHT31;60625;51.212;5.952;2022-12-07T21:10:51;4.92;86.11
72591;SHT31;60625;51.212;5.952;2022-12-07T21:15:52;4.90;86.11
72591;SHT31;60625;51.212;5.952;2022-12-07T21:20:54;4.89;86.17
72591;SHT31;60625;51.212;5.952;2022-12-07T21:25:54;4.87;86.20
72591;SHT31;60625;51.212;5.952;2022-12-07T21:30:56;4.87;86.20
72591;SHT31;60625;51.212;5.952;2022-12-07T21:35:57;4.85;86.21
72591;SHT31;60625;51.212;5.952;2022-12-07T21:40:58;4.83;86.24
72591;SHT31;60625;51.212;5.952;2022-12-07T21:45:59;4.82;86.22
72591;SHT31;60625;51.212;5.952;2022-12-07T21:51:06;4.81;86.26
72591;SHT31;60625;51.212;5.952;2022-12-07T22:01:24;4.81;86.29
72591;SHT31;60625;51.212;5.952;2022-12-07T22:06:28;4.81;86.31
72591;SHT31;60625;51.212;5.952;2022-12-07T22:11:29;4.82;86.35
72591;SHT31;60625;51.212;5.952;2022-12-07T22:16:29;4.81;86.47
72591;SHT31;60625;51.212;5.952;2022-12-07T22:21:32;4.82;86.50
72591;SHT31;60625;51.212;5.952;2022-12-07T22:26:33;4.80;86.52
72591;SHT31;60625;51.212;5.952;2022-12-07T22:31:34;4.78;86.54
72591;SHT31;60625;51.212;5.952;2022-12-07T22:36:38;4.77;86.60
72591;SHT31;60625;51.212;5.952;2022-12-07T22:41:39;4.76;86.60
72591;SHT31;60625;51.212;5.952;2022-12-07T22:46:40;4.75;86.61
72591;SHT31;60625;51.212;5.952;2022-12-07T22:51:41;4.75;86.61
72591;SHT31;60625;51.212;5.952;2022-12-07T22:56:44;4.73;86.58
72591;SHT31;60625;51.212;5.952;2022-12-07T23:01:45;4.72;86.60
72591;SHT31;60625;51.212;5.952;2022-12-07T23:06:46;4.70;86.71
72591;SHT31;60625;51.212;5.952;2022-12-07T23:11:46;4.68;86.93
72591;SHT31;60625;51.212;5.952;2022-12-07T23:17:07;4.69;87.07
72591;SHT31;60625;51.212;5.952;2022-12-07T23:22:09;4.67;87.13
72591;SHT31;60625;51.212;5.952;2022-12-07T23:27:09;4.67;87.19
72591;SHT31;60625;51.212;5.952;2022-12-07T23:32:10;4.66;87.22
72591;SHT31;60625;51.212;5.952;2022-12-07T23:37:10;4.63;87.32
72591;SHT31;60625;51.212;5.952;2022-12-07T23:42:11;4.62;87.42
72591;SHT31;60625;51.212;5.952;2022-12-07T23:47:11;4.61;87.57
72591;SHT31;60625;51.212;5.952;2022-12-07T23:52:12;4.61;87.68
72591;SHT31;60625;51.212;5.952;2022-12-07T23:57:12;4.60;87.81
